Time;durP1;ratioP1;P1;durP2;ratioP2;P2;SDS_P1;SDS_P2;PMS_P1;PMS_P2;Temp;Humidity;BMP_temperature;BMP_pressure;BME280_temperature;BME280_humidity;BME280_pressure;Samples;Min_cycle;Max_cycle;Signal;HPM_P1;HPM_P2
2022/03/30 00:02:13;;;;;;;33.97;20.13;;;;;;;;;;4950854;28;20113;-72
2022/03/30 00:04:39;;;;;;;31.00;19.95;;;;;;;;;;4950551;28;20058;-72
2022/03/30 00:07:05;;;;;;;34.50;21.05;;;;;;;;;;4951254;28;20039;-72
2022/03/30 00:09:32;;;;;;;30.77;20.75;;;;;;;;;;4968924;28;20042;-72
2022/03/30 00:11:58;;;;;;;27.67;20.00;;;;;;;;;;4966088;28;20067;-72
2022/03/30 00:14:24;;;;;;;29.90;20.80;;;;;;;;;;4950342;28;20055;-72
2022/03/30 00:16:51;;;;;;;34.20;20.60;;;;;;;;;;4951301;28;20046;-73
2022/03/30 00:19:18;;;;;;;32.85;20.52;;;;;;;;;;4966044;28;20065;-72
2022/03/30 00:21:44;;;;;;;33.50;22.25;;;;;;;;;;4964736;28;20109;-72
2022/03/30 00:24:10;;;;;;;31.45;21.48;;;;;;;;;;4968259;28;20522;-72
2022/03/30 00:26:36;;;;;;;35.53;21.13;;;;;;;;;;4949845;28;20034;-72
2022/03/30 00:29:04;;;;;;;38.58;22.38;;;;;;;;;;4950095;28;20521;-72
2022/03/30 00:31:31;;;;;;;32.15;21.80;;;;;;;;;;4967789;28;20045;-72
2022/03/30 00:33:57;;;;;;;39.80;21.90;;;;;;;;;;4950899;28;20050;-72
2022/03/30 00:36:22;;;;;;;33.85;21.92;;;;;;;;;;4948275;28;20050;-72
2022/03/30 00:38:48;;;;;;;36.10;21.88;;;;;;;;;;4951436;28;20050;-72
2022/03/30 00:41:14;;;;;;;35.63;22.58;;;;;;;;;;4973415;28;20530;-71
2022/03/30 00:43:39;;;;;;;33.53;21.15;;;;;;;;;;4968652;28;20037;-72
2022/03/30 00:46:05;;;;;;;34.08;20.92;;;;;;;;;;4966496;28;20087;-72
2022/03/30 00:48:31;;;;;;;33.03;21.02;;;;;;;;;;4968009;28;20027;-72
2022/03/30 00:50:56;;;;;;;31.58;20.13;;;;;;;;;;4957263;28;20046;-72
2022/03/30 00:53:22;;;;;;;27.40;20.25;;;;;;;;;;4966720;28;20039;-72
2022/03/30 00:55:52;;;;;;;31.70;19.30;;;;;;;;;;4963759;28;20031;-72
2022/03/30 00:58:18;;;;;;;27.45;20.20;;;;;;;;;;4967618;28;20081;-72
2022/03/30 01:00:43;;;;;;;31.50;19.60;;;;;;;;;;4967696;28;20039;-72
2022/03/30 01:03:09;;;;;;;29.42;19.15;;;;;;;;;;4964612;28;20063;-72
2022/03/30 01:05:34;;;;;;;33.22;19.40;;;;;;;;;;4948930;28;20031;-72
2022/03/30 01:08:00;;;;;;;30.75;18.60;;;;;;;;;;4965312;28;20149;-72
2022/03/30 01:10:26;;;;;;;30.60;18.35;;;;;;;;;;4933819;28;20471;-72
2022/03/30 01:12:54;;;;;;;26.42;18.92;;;;;;;;;;4950685;28;20828;-71
2022/03/30 01:15:20;;;;;;;27.55;18.60;;;;;;;;;;4967620;28;20501;-71
2022/03/30 01:17:46;;;;;;;26.77;18.63;;;;;;;;;;4966471;28;20039;-72
2022/03/30 01:20:16;;;;;;;29.13;19.35;;;;;;;;;;4949706;28;20039;-72
2022/03/30 01:22:42;;;;;;;31.13;19.40;;;;;;;;;;4950234;28;20126;-72
2022/03/30 01:25:09;;;;;;;26.83;18.52;;;;;;;;;;4965778;28;20170;-72
2022/03/30 01:27:35;;;;;;;33.97;19.25;;;;;;;;;;4967044;28;20023;-72
2022/03/30 01:32:53;;;;;;;28.40;19.10;;;;;;;;;;4966542;28;20034;-72
2022/03/30 01:35:19;;;;;;;27.77;18.80;;;;;;;;;;4966033;28;20402;-72
2022/03/30 01:37:45;;;;;;;33.83;19.83;;;;;;;;;;4967312;28;20049;-72
2022/03/30 01:40:11;;;;;;;34.83;19.23;;;;;;;;;;4967876;28;20034;-72
2022/03/30 01:42:36;;;;;;;28.95;19.67;;;;;;;;;;4966840;28;20494;-72
2022/03/30 01:45:03;;;;;;;30.48;19.33;;;;;;;;;;4945411;28;20038;-71
2022/03/30 01:47:28;;;;;;;24.75;20.08;;;;;;;;;;4966853;28;20390;-71
2022/03/30 01:49:54;;;;;;;32.33;21.40;;;;;;;;;;4949665;28;20037;-71
2022/03/30 01:52:20;;;;;;;35.97;22.30;;;;;;;;;;4949685;28;20062;-71
2022/03/30 01:54:46;;;;;;;34.10;21.55;;;;;;;;;;4965374;28;20042;-71
2022/03/30 01:57:12;;;;;;;38.25;22.25;;;;;;;;;;4949004;28;20477;-71
2022/03/30 01:59:39;;;;;;;32.42;22.38;;;;;;;;;;4967093;28;20034;-71
2022/03/30 02:02:05;;;;;;;29.05;22.35;;;;;;;;;;4966546;28;20042;-72
2022/03/30 02:04:31;;;;;;;29.52;21.85;;;;;;;;;;4964967;28;20045;-72
2022/03/30 02:06:57;;;;;;;33.67;21.77;;;;;;;;;;4936008;28;20046;-72
2022/03/30 02:09:23;;;;;;;30.05;21.33;;;;;;;;;;4970465;28;20141;-72
2022/03/30 02:11:50;;;;;;;34.03;21.52;;;;;;;;;;4968820;28;20059;-71
2022/03/30 02:14:16;;;;;;;27.40;20.58;;;;;;;;;;4969736;28;20039;-71
2022/03/30 02:16:42;;;;;;;24.23;19.85;;;;;;;;;;4969694;28;20038;-71
2022/03/30 02:19:08;;;;;;;32.20;20.80;;;;;;;;;;4966844;28;20082;-71
2022/03/30 02:21:34;;;;;;;27.40;20.63;;;;;;;;;;4951688;28;20077;-71
2022/03/30 02:24:00;;;;;;;28.38;21.15;;;;;;;;;;4969526;28;20502;-71
2022/03/30 02:26:27;;;;;;;31.77;20.63;;;;;;;;;;4959895;28;20039;-71
2022/03/30 02:28:54;;;;;;;35.22;20.45;;;;;;;;;;4934390;28;20035;-71
2022/03/30 02:31:23;;;;;;;29.85;20.42;;;;;;;;;;4952281;28;20050;-71
2022/03/30 02:33:49;;;;;;;29.48;19.70;;;;;;;;;;4969124;28;20602;-71
2022/03/30 02:36:15;;;;;;;28.70;20.10;;;;;;;;;;4969127;28;20034;-71
2022/03/30 02:38:44;;;;;;;36.85;21.08;;;;;;;;;;4969145;28;20050;-72
2022/03/30 02:41:11;;;;;;;28.40;20.55;;;;;;;;;;4952371;28;20061;-71
2022/03/30 02:43:37;;;;;;;30.52;20.67;;;;;;;;;;4964088;28;20035;-71
2022/03/30 02:46:03;;;;;;;26.33;19.88;;;;;;;;;;4963732;28;20117;-71
2022/03/30 02:48:32;;;;;;;29.27;19.65;;;;;;;;;;4969070;28;20026;-71
2022/03/30 02:51:04;;;;;;;25.40;19.60;;;;;;;;;;4969161;28;20031;-71
2022/03/30 02:53:30;;;;;;;32.03;19.50;;;;;;;;;;4966991;28;20076;-71
2022/03/30 02:55:56;;;;;;;31.02;19.50;;;;;;;;;;4968663;28;20498;-71
2022/03/30 02:58:23;;;;;;;25.33;19.38;;;;;;;;;;4969420;28;20059;-71
2022/03/30 03:00:49;;;;;;;33.47;20.35;;;;;;;;;;4949034;28;20042;-71
2022/03/30 03:03:15;;;;;;;29.25;21.23;;;;;;;;;;4966834;28;20132;-71
2022/03/30 03:05:42;;;;;;;35.88;21.75;;;;;;;;;;4958858;28;20057;-71
2022/03/30 03:08:11;;;;;;;31.50;21.65;;;;;;;;;;4971859;28;20042;-71
2022/03/30 03:10:38;;;;;;;30.48;20.45;;;;;;;;;;4968940;28;20019;-71
2022/03/30 03:13:05;;;;;;;29.23;20.02;;;;;;;;;;4936302;28;20108;-71
2022/03/30 03:15:31;;;;;;;31.48;21.45;;;;;;;;;;4968440;28;20054;-72
2022/03/30 03:17:58;;;;;;;31.55;20.95;;;;;;;;;;4966546;28;20733;-72
2022/03/30 03:20:25;;;;;;;29.17;20.77;;;;;;;;;;4951368;28;20081;-71
2022/03/30 03:22:51;;;;;;;28.17;19.70;;;;;;;;;;4951725;28;20034;-71
2022/03/30 03:25:16;;;;;;;35.10;21.13;;;;;;;;;;4964805;28;20035;-72
2022/03/30 03:27:43;;;;;;;29.42;19.90;;;;;;;;;;4951408;28;20160;-71
2022/03/30 03:30:09;;;;;;;37.97;20.73;;;;;;;;;;4969186;28;20054;-72
2022/03/30 03:32:35;;;;;;;29.23;20.65;;;;;;;;;;4930790;28;20054;-72
2022/03/30 03:35:02;;;;;;;30.98;20.92;;;;;;;;;;4964439;28;20046;-71
2022/03/30 03:37:27;;;;;;;29.58;20.92;;;;;;;;;;4968641;28;20066;-71
2022/03/30 03:39:53;;;;;;;25.65;20.77;;;;;;;;;;4968471;28;20124;-72
2022/03/30 03:42:19;;;;;;;35.72;21.88;;;;;;;;;;4966285;28;20165;-72
2022/03/30 03:44:44;;;;;;;30.75;20.48;;;;;;;;;;4952045;28;20034;-71
2022/03/30 03:47:10;;;;;;;33.20;19.83;;;;;;;;;;4971681;28;20046;-71
2022/03/30 03:49:36;;;;;;;27.77;19.58;;;;;;;;;;4967208;28;20030;-72
2022/03/30 03:52:04;;;;;;;33.53;20.20;;;;;;;;;;4967601;28;20072;-72
2022/03/30 03:54:29;;;;;;;31.25;20.42;;;;;;;;;;4950612;28;20065;-71
2022/03/30 03:56:55;;;;;;;29.25;20.08;;;;;;;;;;4950448;28;20497;-71
2022/03/30 03:59:20;;;;;;;31.42;20.48;;;;;;;;;;4964515;28;20027;-72
2022/03/30 04:01:46;;;;;;;31.30;20.50;;;;;;;;;;4968415;28;20510;-72
2022/03/30 04:04:12;;;;;;;29.95;20.17;;;;;;;;;;4951021;28;20136;-72
2022/03/30 04:06:37;;;;;;;29.95;20.60;;;;;;;;;;4949022;28;20050;-71
2022/03/30 04:09:03;;;;;;;27.33;19.98;;;;;;;;;;4952079;28;20062;-71
2022/03/30 04:11:29;;;;;;;28.63;20.77;;;;;;;;;;4950586;28;20462;-72
2022/03/30 04:13:55;;;;;;;28.70;20.50;;;;;;;;;;4967965;28;20049;-71
2022/03/30 04:16:21;;;;;;;30.08;20.38;;;;;;;;;;4967045;28;20047;-71
2022/03/30 04:18:47;;;;;;;31.90;20.17;;;;;;;;;;4968305;28;20038;-71
2022/03/30 04:21:12;;;;;;;30.27;20.88;;;;;;;;;;4968819;28;20046;-71
2022/03/30 04:23:38;;;;;;;29.35;21.20;;;;;;;;;;4968152;28;20051;-71
2022/03/30 04:26:04;;;;;;;27.80;21.00;;;;;;;;;;4961374;28;20041;-71
2022/03/30 04:28:30;;;;;;;30.25;21.05;;;;;;;;;;4966038;28;20070;-71
2022/03/30 04:30:56;;;;;;;32.83;22.05;;;;;;;;;;4950811;28;20034;-71
2022/03/30 04:33:21;;;;;;;30.48;22.10;;;;;;;;;;4969024;28;20034;-71
2022/03/30 04:35:47;;;;;;;37.80;22.17;;;;;;;;;;4964065;28;20031;-71
2022/03/30 04:38:14;;;;;;;34.80;23.20;;;;;;;;;;4968027;28;20093;-72
2022/03/30 04:40:40;;;;;;;33.85;22.70;;;;;;;;;;4968660;28;20027;-71
2022/03/30 04:43:07;;;;;;;35.88;23.38;;;;;;;;;;4962130;28;20148;-71
2022/03/30 04:45:33;;;;;;;34.22;23.48;;;;;;;;;;4945760;28;20043;-71
2022/03/30 04:47:59;;;;;;;35.40;23.45;;;;;;;;;;4968079;28;20045;-71
2022/03/30 04:50:25;;;;;;;41.17;23.05;;;;;;;;;;4968385;28;20039;-71
2022/03/30 04:52:52;;;;;;;36.83;23.73;;;;;;;;;;4951393;28;20122;-71
2022/03/30 04:55:19;;;;;;;34.10;21.33;;;;;;;;;;4945105;28;20042;-69
2022/03/30 04:57:45;;;;;;;39.22;22.17;;;;;;;;;;4965350;28;20031;-69
2022/03/30 05:00:11;;;;;;;38.10;22.35;;;;;;;;;;4968733;28;20065;-69
2022/03/30 05:02:38;;;;;;;37.50;21.08;;;;;;;;;;4968444;28;20074;-69
2022/03/30 05:05:05;;;;;;;27.80;20.85;;;;;;;;;;4965311;28;20039;-69
2022/03/30 05:07:30;;;;;;;37.30;23.70;;;;;;;;;;4968040;28;20034;-69
2022/03/30 05:09:57;;;;;;;36.17;22.33;;;;;;;;;;4968119;28;20037;-69
2022/03/30 05:12:24;;;;;;;42.97;26.88;;;;;;;;;;4967712;28;20053;-69
2022/03/30 05:14:49;;;;;;;44.20;28.45;;;;;;;;;;4963668;28;20034;-68
2022/03/30 05:17:16;;;;;;;38.85;28.70;;;;;;;;;;4967405;28;20030;-69
2022/03/30 05:19:44;;;;;;;40.55;28.80;;;;;;;;;;4951012;28;20555;-68
2022/03/30 05:22:10;;;;;;;43.97;29.42;;;;;;;;;;4966158;28;20035;-68
2022/03/30 05:24:36;;;;;;;47.08;30.60;;;;;;;;;;4967074;28;20038;-68
2022/03/30 05:27:02;;;;;;;44.78;29.77;;;;;;;;;;4967325;28;20039;-68
2022/03/30 05:29:27;;;;;;;47.35;31.55;;;;;;;;;;4964795;28;20061;-68
2022/03/30 05:31:53;;;;;;;45.50;31.23;;;;;;;;;;4967627;28;20420;-69
2022/03/30 05:34:19;;;;;;;45.65;30.80;;;;;;;;;;4966995;28;20031;-69
2022/03/30 05:36:44;;;;;;;50.00;32.28;;;;;;;;;;4965954;28;20034;-70
2022/03/30 05:39:10;;;;;;;47.20;33.22;;;;;;;;;;4969045;28;20031;-69
2022/03/30 05:41:35;;;;;;;39.72;30.83;;;;;;;;;;4971540;28;20077;-69
2022/03/30 05:44:02;;;;;;;49.80;31.92;;;;;;;;;;4971304;28;20501;-69
2022/03/30 05:46:28;;;;;;;45.95;32.13;;;;;;;;;;4968632;28;20461;-70
2022/03/30 05:48:54;;;;;;;43.17;31.85;;;;;;;;;;4971363;28;20062;-70
2022/03/30 05:51:20;;;;;;;49.33;32.13;;;;;;;;;;4947773;28;20039;-70
2022/03/30 05:53:45;;;;;;;50.45;31.70;;;;;;;;;;4983885;23;20031;-69
2022/03/30 05:56:11;;;;;;;44.72;32.08;;;;;;;;;;4991168;28;20130;-70
2022/03/30 05:58:37;;;;;;;38.85;31.40;;;;;;;;;;4990057;28;20638;-70
2022/03/30 06:01:03;;;;;;;46.35;31.10;;;;;;;;;;4989972;28;20027;-70
2022/03/30 06:03:29;;;;;;;37.67;31.63;;;;;;;;;;4989002;28;20062;-70
2022/03/30 06:05:55;;;;;;;36.60;30.83;;;;;;;;;;4976937;28;20442;-71
2022/03/30 06:08:20;;;;;;;37.90;29.98;;;;;;;;;;4962800;28;20561;-70
2022/03/30 06:10:46;;;;;;;41.13;30.60;;;;;;;;;;4969188;28;20039;-70
2022/03/30 06:13:12;;;;;;;44.75;30.58;;;;;;;;;;4971230;28;20442;-70
2022/03/30 06:15:39;;;;;;;40.60;29.92;;;;;;;;;;4967568;28;20090;-70
2022/03/30 06:18:10;;;;;;;44.53;30.75;;;;;;;;;;4952663;28;20114;-70
2022/03/30 06:20:37;;;;;;;43.10;29.95;;;;;;;;;;4971645;28;20034;-69
2022/03/30 06:23:02;;;;;;;43.47;29.65;;;;;;;;;;4983692;28;20081;-70
2022/03/30 06:25:28;;;;;;;39.55;30.55;;;;;;;;;;4997767;28;20039;-70
2022/03/30 06:27:54;;;;;;;44.95;30.55;;;;;;;;;;4987138;28;20050;-71
2022/03/30 06:30:20;;;;;;;45.60;30.90;;;;;;;;;;4978832;28;20125;-71
2022/03/30 06:32:49;;;;;;;39.50;30.17;;;;;;;;;;4976048;28;20034;-70
2022/03/30 06:35:19;;;;;;;55.50;35.03;;;;;;;;;;4979659;28;20114;-70
2022/03/30 06:37:48;;;;;;;52.72;35.08;;;;;;;;;;4978402;28;20039;-70
2022/03/30 06:40:15;;;;;;;46.08;32.40;;;;;;;;;;4972582;28;20100;-70
2022/03/30 06:42:41;;;;;;;43.17;31.38;;;;;;;;;;4986748;28;20069;-70
2022/03/30 06:45:10;;;;;;;42.40;31.02;;;;;;;;;;4979314;28;20046;-71
2022/03/30 06:47:37;;;;;;;48.20;32.78;;;;;;;;;;4967085;28;20524;-70
2022/03/30 06:50:05;;;;;;;49.72;31.55;;;;;;;;;;4993634;28;20037;-70
2022/03/30 06:52:32;;;;;;;47.67;32.15;;;;;;;;;;4992995;28;20080;-72
2022/03/30 06:54:59;;;;;;;43.08;31.10;;;;;;;;;;4970348;28;20046;-70
2022/03/30 06:57:27;;;;;;;53.08;31.13;;;;;;;;;;4987203;28;20042;-71
2022/03/30 06:59:53;;;;;;;43.22;31.17;;;;;;;;;;4987526;28;20176;-71
2022/03/30 07:02:19;;;;;;;47.50;30.95;;;;;;;;;;4985466;28;20419;-71
2022/03/30 07:04:45;;;;;;;47.25;31.55;;;;;;;;;;4988004;28;20040;-71
2022/03/30 07:12:39;;;;;;;44.75;32.60;;;;;;;;;;4972104;28;20089;-71
2022/03/30 07:15:05;;;;;;;50.70;32.42;;;;;;;;;;4963179;28;20441;-71
2022/03/30 07:17:30;;;;;;;46.15;32.03;;;;;;;;;;4987948;28;20046;-71
2022/03/30 07:19:56;;;;;;;44.25;30.33;;;;;;;;;;4974575;28;20041;-71
2022/03/30 07:22:22;;;;;;;50.15;30.92;;;;;;;;;;4970970;28;20043;-71
2022/03/30 07:24:47;;;;;;;49.15;31.05;;;;;;;;;;4983087;28;20077;-71
2022/03/30 07:27:13;;;;;;;55.42;32.45;;;;;;;;;;4993092;28;20034;-71
2022/03/30 07:29:39;;;;;;;45.75;30.38;;;;;;;;;;4974345;28;20019;-72
2022/03/30 07:32:05;;;;;;;47.42;30.15;;;;;;;;;;4986332;28;20041;-71
2022/03/30 07:34:31;;;;;;;42.00;29.92;;;;;;;;;;4988152;28;20072;-72
2022/03/30 07:36:58;;;;;;;49.33;30.25;;;;;;;;;;4984882;28;20157;-71
2022/03/30 07:39:23;;;;;;;44.22;29.50;;;;;;;;;;4983679;28;20037;-71
2022/03/30 07:41:49;;;;;;;51.35;30.65;;;;;;;;;;4977258;28;20026;-72
2022/03/30 07:44:14;;;;;;;47.92;31.00;;;;;;;;;;4962172;28;20244;-71
2022/03/30 07:46:40;;;;;;;61.85;31.67;;;;;;;;;;4984916;28;20633;-71
2022/03/30 07:49:06;;;;;;;37.92;30.25;;;;;;;;;;4963995;28;20378;-71
2022/03/30 07:51:32;;;;;;;49.65;30.77;;;;;;;;;;4989737;28;20048;-70
2022/03/30 07:53:58;;;;;;;44.00;31.13;;;;;;;;;;4989258;28;20038;-71
2022/03/30 07:56:23;;;;;;;47.15;30.45;;;;;;;;;;4986527;28;20117;-71
2022/03/30 07:58:49;;;;;;;48.65;30.13;;;;;;;;;;4986084;28;20034;-71
2022/03/30 08:01:18;;;;;;;50.00;30.17;;;;;;;;;;4982858;28;20042;-71
2022/03/30 08:03:44;;;;;;;40.58;29.65;;;;;;;;;;4987151;28;20045;-70
2022/03/30 08:06:10;;;;;;;45.42;29.83;;;;;;;;;;4992431;28;20034;-71
2022/03/30 08:08:36;;;;;;;40.67;28.58;;;;;;;;;;4979158;28;20034;-71
2022/03/30 08:11:02;;;;;;;46.65;28.05;;;;;;;;;;4984569;28;20076;-71
2022/03/30 08:13:28;;;;;;;47.33;29.63;;;;;;;;;;4994806;28;20062;-71
2022/03/30 08:15:54;;;;;;;45.05;26.88;;;;;;;;;;4989722;28;20069;-71
2022/03/30 08:18:19;;;;;;;40.50;27.15;;;;;;;;;;4979802;28;20035;-71
2022/03/30 08:23:30;;;;;;;39.28;26.48;;;;;;;;;;4976366;28;20080;-71
2022/03/30 08:25:55;;;;;;;44.97;27.25;;;;;;;;;;4970895;28;20428;-70
2022/03/30 08:28:21;;;;;;;40.28;26.52;;;;;;;;;;4989558;28;20034;-71
2022/03/30 08:30:48;;;;;;;39.53;27.10;;;;;;;;;;4990492;28;20030;-71
2022/03/30 08:33:16;;;;;;;44.20;28.38;;;;;;;;;;5005309;28;20105;-71
2022/03/30 08:35:42;;;;;;;39.65;28.02;;;;;;;;;;4984358;28;20039;-72
2022/03/30 08:38:08;;;;;;;43.47;26.98;;;;;;;;;;4983156;28;20038;-72
2022/03/30 08:40:34;;;;;;;40.13;26.92;;;;;;;;;;4999720;28;20425;-71
2022/03/30 08:43:00;;;;;;;40.25;26.77;;;;;;;;;;4983242;28;20050;-71
2022/03/30 08:45:26;;;;;;;41.90;26.40;;;;;;;;;;4984096;28;20473;-71
2022/03/30 08:47:52;;;;;;;40.47;27.65;;;;;;;;;;4964802;28;20056;-71
2022/03/30 08:50:19;;;;;;;49.00;27.83;;;;;;;;;;4987337;28;20033;-71
2022/03/30 08:52:49;;;;;;;43.17;28.50;;;;;;;;;;4979747;28;20046;-71
2022/03/30 08:55:16;;;;;;;53.80;30.05;;;;;;;;;;4980346;28;20152;-71
2022/03/30 08:57:42;;;;;;;47.05;30.17;;;;;;;;;;4979668;28;20054;-71
2022/03/30 09:00:16;;;;;;;43.70;29.85;;;;;;;;;;4977731;28;20064;-71
2022/03/30 09:02:45;;;;;;;42.95;29.50;;;;;;;;;;4974084;28;20104;-72
2022/03/30 09:05:12;;;;;;;49.47;30.17;;;;;;;;;;4978792;28;20923;-72
2022/03/30 09:07:40;;;;;;;52.58;30.33;;;;;;;;;;4963472;28;20129;-72
2022/03/30 09:10:12;;;;;;;43.58;30.20;;;;;;;;;;4977956;28;20035;-72
2022/03/30 09:12:38;;;;;;;49.55;30.85;;;;;;;;;;4974800;28;20038;-72
2022/03/30 09:15:05;;;;;;;41.60;29.23;;;;;;;;;;4967629;28;20030;-72
2022/03/30 09:17:39;;;;;;;50.95;30.50;;;;;;;;;;4973983;28;20116;-72
2022/03/30 09:20:06;;;;;;;48.13;30.60;;;;;;;;;;4977323;28;20710;-71
2022/03/30 09:22:33;;;;;;;49.78;28.50;;;;;;;;;;4981718;28;20050;-71
2022/03/30 09:25:00;;;;;;;42.83;29.38;;;;;;;;;;4979075;28;20130;-71
2022/03/30 09:27:28;;;;;;;42.03;28.98;;;;;;;;;;4967727;28;20050;-71
2022/03/30 09:29:54;;;;;;;41.00;29.53;;;;;;;;;;4978080;28;20033;-71
2022/03/30 09:32:20;;;;;;;43.00;28.33;;;;;;;;;;4983427;28;20042;-71
2022/03/30 09:34:49;;;;;;;38.17;27.67;;;;;;;;;;4988761;28;20049;-71
2022/03/30 09:37:15;;;;;;;47.08;29.33;;;;;;;;;;4982372;28;20685;-71
2022/03/30 09:39:42;;;;;;;41.42;29.67;;;;;;;;;;4968146;28;20556;-72
2022/03/30 09:42:09;;;;;;;51.33;29.85;;;;;;;;;;4983117;28;20097;-72
2022/03/30 09:44:53;;;;;;;40.08;28.98;;;;;;;;;;4979736;28;20038;-71
2022/03/30 09:47:20;;;;;;;51.55;33.28;;;;;;;;;;4987254;28;20030;-71
2022/03/30 09:49:52;;;;;;;41.60;28.50;;;;;;;;;;4964370;28;20082;-71
2022/03/30 09:52:22;;;;;;;47.05;29.85;;;;;;;;;;4982886;28;20042;-70
2022/03/30 09:54:50;;;;;;;48.28;29.15;;;;;;;;;;4984532;28;20061;-71
2022/03/30 09:57:22;;;;;;;48.38;28.23;;;;;;;;;;4954377;28;20046;-70
2022/03/30 09:59:57;;;;;;;61.42;35.60;;;;;;;;;;4980242;28;20038;-71
2022/03/30 10:02:25;;;;;;;42.38;29.00;;;;;;;;;;4984149;28;20114;-72
2022/03/30 10:04:51;;;;;;;50.60;30.38;;;;;;;;;;4992752;28;20666;-72
2022/03/30 10:07:17;;;;;;;47.28;32.13;;;;;;;;;;4982327;28;20038;-71
2022/03/30 10:09:43;;;;;;;46.33;29.98;;;;;;;;;;4985203;28;20040;-71
2022/03/30 10:12:12;;;;;;;36.05;28.20;;;;;;;;;;4983124;28;20121;-71
2022/03/30 10:14:39;;;;;;;42.40;29.23;;;;;;;;;;4977569;28;20390;-72
2022/03/30 10:17:05;;;;;;;40.33;28.90;;;;;;;;;;4981314;28;20481;-72
2022/03/30 10:19:31;;;;;;;43.70;30.80;;;;;;;;;;4972114;28;20038;-71
2022/03/30 10:22:28;;;;;;;42.83;31.13;;;;;;;;;;4982101;28;20044;-71
2022/03/30 10:25:31;;;;;;;55.38;31.30;;;;;;;;;;4985815;28;20121;-71
2022/03/30 10:28:08;;;;;;;43.28;30.20;;;;;;;;;;4981607;28;20034;-71
2022/03/30 10:30:35;;;;;;;47.92;30.00;;;;;;;;;;4978471;28;20569;-72
2022/03/30 10:33:03;;;;;;;45.83;31.90;;;;;;;;;;4989288;28;20031;-72
2022/03/30 10:35:46;;;;;;;44.28;31.55;;;;;;;;;;4988980;28;20034;-71
2022/03/30 10:38:12;;;;;;;47.13;29.77;;;;;;;;;;4980067;28;20664;-71
2022/03/30 10:40:39;;;;;;;41.78;28.20;;;;;;;;;;4986733;28;20034;-71
2022/03/30 10:43:07;;;;;;;52.90;29.30;;;;;;;;;;4982449;28;20061;-71
2022/03/30 10:45:38;;;;;;;46.80;28.33;;;;;;;;;;4984794;28;20069;-71
2022/03/30 10:48:13;;;;;;;38.30;28.77;;;;;;;;;;4973717;28;20146;-71
2022/03/30 10:50:45;;;;;;;43.83;27.98;;;;;;;;;;4984543;28;20043;-71
2022/03/30 10:53:29;;;;;;;37.42;26.83;;;;;;;;;;4983204;28;20594;-71
2022/03/30 10:56:15;;;;;;;45.13;27.63;;;;;;;;;;4981389;28;20035;-72
2022/03/30 10:58:50;;;;;;;37.20;26.50;;;;;;;;;;4988216;28;20038;-71
2022/03/30 11:01:22;;;;;;;62.88;36.88;;;;;;;;;;4990984;28;20037;-71
2022/03/30 11:03:56;;;;;;;34.55;27.35;;;;;;;;;;4977735;28;20126;-70
2022/03/30 11:06:22;;;;;;;40.22;30.10;;;;;;;;;;4988371;28;20026;-71
2022/03/30 11:08:53;;;;;;;36.63;25.33;;;;;;;;;;4982351;28;20049;-71
2022/03/30 11:11:24;;;;;;;45.80;27.40;;;;;;;;;;4978505;28;20121;-71
2022/03/30 11:14:22;;;;;;;46.42;25.92;;;;;;;;;;4987641;28;20043;-71
2022/03/30 11:16:49;;;;;;;33.85;24.80;;;;;;;;;;4982787;28;20132;-71
2022/03/30 11:19:15;;;;;;;34.78;24.52;;;;;;;;;;4985296;28;21006;-71
2022/03/30 11:22:11;;;;;;;35.83;24.25;;;;;;;;;;4992617;28;20117;-71
2022/03/30 11:24:44;;;;;;;32.15;24.13;;;;;;;;;;4970301;28;20038;-71
2022/03/30 11:27:10;;;;;;;34.70;23.48;;;;;;;;;;4986792;28;20552;-71
2022/03/30 11:29:47;;;;;;;30.67;24.58;;;;;;;;;;4992540;28;20133;-71
2022/03/30 11:32:40;;;;;;;35.90;24.42;;;;;;;;;;4963379;28;20047;-71
2022/03/30 11:35:17;;;;;;;32.53;24.00;;;;;;;;;;4981074;28;20683;-71
2022/03/30 11:37:46;;;;;;;38.83;24.52;;;;;;;;;;4988727;28;20065;-71
2022/03/30 11:40:14;;;;;;;38.33;23.85;;;;;;;;;;4994164;28;20033;-71
2022/03/30 11:42:45;;;;;;;;;;;;;;;;;;4981164;28;20698;-70
2022/03/30 11:45:19;;;;;;;35.78;23.70;;;;;;;;;;4985834;28;19921;-71
2022/03/30 11:47:54;;;;;;;34.17;25.50;;;;;;;;;;4987100;28;20117;-71
2022/03/30 11:50:26;;;;;;;38.08;24.90;;;;;;;;;;4976244;28;20089;-72
2022/03/30 11:52:56;;;;;;;50.38;26.83;;;;;;;;;;4983667;28;20035;-72
2022/03/30 11:55:22;;;;;;;40.45;26.60;;;;;;;;;;4988093;28;20481;-72
2022/03/30 11:57:51;;;;;;;39.13;24.88;;;;;;;;;;4983253;28;20030;-70
2022/03/30 12:00:17;;;;;;;35.30;25.20;;;;;;;;;;4978709;28;20049;-70
2022/03/30 12:02:44;;;;;;;40.20;26.77;;;;;;;;;;4990850;28;20034;-70
2022/03/30 12:05:10;;;;;;;52.95;28.90;;;;;;;;;;4974702;28;20049;-70
2022/03/30 12:07:38;;;;;;;38.50;27.67;;;;;;;;;;4991117;28;20050;-71
2022/03/30 12:10:06;;;;;;;42.85;28.15;;;;;;;;;;4999039;23;20038;-70
2022/03/30 12:12:35;;;;;;;44.83;26.38;;;;;;;;;;4990680;28;20053;-70
2022/03/30 12:15:30;;;;;;;43.65;29.10;;;;;;;;;;4994684;28;20041;-71
2022/03/30 12:17:58;;;;;;;51.08;30.50;;;;;;;;;;4912884;29;20052;-70
2022/03/30 12:20:30;;;;;;;47.97;32.70;;;;;;;;;;4922371;29;20506;-71
2022/03/30 12:22:58;;;;;;;48.38;31.33;;;;;;;;;;4925571;29;20043;-71
2022/03/30 12:25:29;;;;;;;55.05;32.10;;;;;;;;;;4909914;29;20055;-71
2022/03/30 12:27:56;;;;;;;42.08;31.65;;;;;;;;;;4920788;29;20066;-72
2022/03/30 12:30:23;;;;;;;48.38;31.92;;;;;;;;;;4914052;29;20126;-72
2022/03/30 12:32:48;;;;;;;46.47;31.70;;;;;;;;;;4894561;29;20116;-72
2022/03/30 12:35:16;;;;;;;49.47;32.90;;;;;;;;;;4905536;29;20134;-73
2022/03/30 12:37:45;;;;;;;44.30;31.90;;;;;;;;;;4934010;29;20046;-72
2022/03/30 12:40:16;;;;;;;53.08;32.50;;;;;;;;;;4920731;29;20626;-73
2022/03/30 12:42:44;;;;;;;44.58;29.27;;;;;;;;;;4903139;29;20147;-73
2022/03/30 12:45:11;;;;;;;39.00;29.23;;;;;;;;;;4927186;29;20118;-73
2022/03/30 12:47:46;;;;;;;42.70;31.17;;;;;;;;;;4930619;28;20174;-73
2022/03/30 12:50:16;;;;;;;43.70;29.67;;;;;;;;;;4910903;29;20051;-73
2022/03/30 12:52:45;;;;;;;46.38;30.25;;;;;;;;;;4901729;29;20080;-73
2022/03/30 12:55:20;;;;;;;37.95;29.45;;;;;;;;;;4976889;28;20437;-72
2022/03/30 12:58:16;;;;;;;41.85;30.27;;;;;;;;;;4985764;28;20096;-73
2022/03/30 13:00:44;;;;;;;39.42;30.15;;;;;;;;;;4969927;28;20097;-73
2022/03/30 13:03:09;;;;;;;39.45;28.25;;;;;;;;;;4979019;28;20130;-73
2022/03/30 13:05:36;;;;;;;38.92;28.08;;;;;;;;;;4986445;28;20113;-73
2022/03/30 13:08:11;;;;;;;38.35;28.85;;;;;;;;;;4963245;28;20039;-73
2022/03/30 13:10:50;;;;;;;36.40;28.30;;;;;;;;;;4961227;28;20033;-73
2022/03/30 13:13:18;;;;;;;34.42;26.98;;;;;;;;;;4982645;28;20769;-73
2022/03/30 13:15:44;;;;;;;25.27;22.58;;;;;;;;;;4959756;28;20117;-73
2022/03/30 13:18:15;;;;;;;24.67;22.40;;;;;;;;;;4969718;28;20261;-73
2022/03/30 13:21:00;;;;;;;25.95;23.40;;;;;;;;;;4981885;28;20026;-72
2022/03/30 13:23:40;;;;;;;25.73;23.63;;;;;;;;;;4984476;28;20481;-73
2022/03/30 13:26:24;;;;;;;24.15;22.25;;;;;;;;;;4984970;28;20038;-73
2022/03/30 13:28:49;;;;;;;24.65;22.63;;;;;;;;;;4958302;28;20070;-72
2022/03/30 13:31:15;;;;;;;25.25;22.95;;;;;;;;;;4966592;28;20116;-73
2022/03/30 13:33:41;;;;;;;25.80;23.70;;;;;;;;;;4982535;28;20084;-73
2022/03/30 13:36:06;;;;;;;23.10;21.08;;;;;;;;;;4953025;28;20034;-72
2022/03/30 13:38:32;;;;;;;22.83;21.15;;;;;;;;;;4969625;28;20038;-73
2022/03/30 13:40:58;;;;;;;24.55;22.55;;;;;;;;;;4986190;28;20038;-73
2022/03/30 13:43:23;;;;;;;23.75;21.80;;;;;;;;;;4986299;28;20039;-72
2022/03/30 13:45:49;;;;;;;22.50;20.80;;;;;;;;;;4963375;28;20397;-73
2022/03/30 13:48:14;;;;;;;22.40;20.70;;;;;;;;;;4983176;28;20100;-73
2022/03/30 13:50:40;;;;;;;20.20;18.60;;;;;;;;;;4946080;28;20039;-73
2022/03/30 13:53:06;;;;;;;19.98;18.48;;;;;;;;;;4966991;28;20038;-74
2022/03/30 13:55:34;;;;;;;21.17;19.38;;;;;;;;;;4965480;28;20096;-73
2022/03/30 13:58:00;;;;;;;19.67;18.08;;;;;;;;;;4979151;28;20035;-72
2022/03/30 14:00:27;;;;;;;21.95;20.15;;;;;;;;;;4978015;28;20041;-73
2022/03/30 14:02:57;;;;;;;20.58;18.88;;;;;;;;;;4977767;28;20066;-73
2022/03/30 14:05:25;;;;;;;21.88;19.88;;;;;;;;;;4982124;28;20066;-72
2022/03/30 14:07:52;;;;;;;20.63;18.83;;;;;;;;;;4983825;28;20065;-74
2022/03/30 14:10:18;;;;;;;22.63;20.70;;;;;;;;;;4979626;28;20517;-72
2022/03/30 14:12:44;;;;;;;21.48;19.85;;;;;;;;;;4974326;28;20097;-72
2022/03/30 14:15:11;;;;;;;22.00;20.10;;;;;;;;;;4983528;28;20038;-73
2022/03/30 14:17:37;;;;;;;23.70;21.70;;;;;;;;;;4970087;28;20034;-72
2022/03/30 14:20:05;;;;;;;22.23;20.40;;;;;;;;;;4975876;28;20066;-72
2022/03/30 14:22:30;;;;;;;21.58;19.65;;;;;;;;;;4979857;28;20042;-72
2022/03/30 14:24:56;;;;;;;22.20;20.30;;;;;;;;;;4981800;28;20553;-73
2022/03/30 14:27:22;;;;;;;21.30;19.40;;;;;;;;;;4989428;28;20030;-72
2022/03/30 14:29:48;;;;;;;20.85;19.15;;;;;;;;;;4972189;28;20486;-74
2022/03/30 14:32:14;;;;;;;21.73;19.92;;;;;;;;;;4974971;28;20109;-73
2022/03/30 14:34:41;;;;;;;21.73;19.95;;;;;;;;;;4934920;28;20042;-72